createdAt,value
2022-09-14T01:11:41.306Z,19.40
2022-09-14T01:14:17.891Z,19.40
2022-09-14T01:16:53.771Z,19.30
2022-09-14T01:19:47.781Z,19.20
2022-09-14T01:22:24.428Z,19.20
2022-09-14T01:25:15.093Z,19.20
2022-09-14T01:27:44.044Z,19.20
2022-09-14T01:30:19.841Z,19.20
2022-09-14T01:32:46.475Z,19.10
2022-09-14T01:35:40.612Z,19.10
2022-09-14T01:38:10.626Z,19.10
2022-09-14T01:40:42.308Z,19.10
2022-09-14T01:43:18.014Z,19.10
2022-09-14T01:45:54.559Z,19.20
2022-09-14T01:48:27.036Z,19.10
2022-09-14T01:50:58.349Z,19.20
2022-09-14T01:53:41.104Z,19.20
2022-09-14T01:56:15.289Z,19.20
2022-09-14T01:58:47.307Z,19.10
2022-09-14T02:01:20.059Z,19.10
2022-09-14T02:03:52.089Z,19.10
2022-09-14T02:06:22.062Z,19.10
2022-09-14T02:08:51.964Z,19.10
2022-09-14T02:11:18.735Z,19.10
2022-09-14T02:13:45.607Z,19.10
2022-09-14T02:16:12.819Z,19.00
2022-09-14T02:18:40.436Z,18.90
2022-09-14T02:21:15.586Z,19.00
2022-09-14T02:23:43.581Z,19.00
2022-09-14T02:26:10.762Z,19.00
2022-09-14T02:28:39.692Z,19.10
2022-09-14T02:31:43.971Z,19.00
2022-09-14T02:34:21.887Z,19.00
2022-09-14T02:37:03.611Z,19.00
2022-09-14T02:39:36.494Z,19.00
2022-09-14T02:42:29.726Z,19.00
2022-09-14T02:45:20.672Z,19.10
2022-09-14T02:48:22.626Z,19.10
2022-09-14T02:50:57.310Z,19.00
2022-09-14T02:53:36.324Z,19.00
2022-09-14T02:56:08.254Z,19.10
2022-09-14T02:58:41.157Z,19.10
2022-09-14T03:01:13.509Z,19.00
2022-09-14T03:03:40.486Z,19.00
2022-09-14T03:06:07.663Z,19.00
2022-09-14T03:08:37.064Z,19.00
2022-09-14T03:11:06.896Z,19.00
2022-09-14T03:13:35.642Z,19.00
2022-09-14T03:16:12.102Z,19.00
2022-09-14T03:18:39.353Z,19.10
2022-09-14T03:21:11.893Z,19.00
2022-09-14T03:23:41.146Z,19.10
2022-09-14T03:26:12.914Z,19.10
2022-09-14T03:28:39.928Z,19.10
2022-09-14T03:31:08.799Z,19.10
2022-09-14T03:33:40.471Z,19.10
2022-09-14T03:36:18.590Z,19.10
2022-09-14T03:38:47.284Z,19.10
2022-09-14T03:41:14.781Z,19.10
2022-09-14T03:43:43.276Z,19.00
2022-09-14T03:46:13.733Z,19.00
2022-09-14T03:48:41.155Z,19.00
2022-09-14T03:51:12.474Z,19.00
2022-09-14T03:53:39.882Z,19.00
2022-09-14T03:56:11.751Z,19.00
2022-09-14T03:58:41.379Z,19.00
2022-09-14T04:01:09.529Z,19.00
2022-09-14T04:03:40.055Z,19.00
2022-09-14T04:06:07.793Z,19.00
2022-09-14T04:08:36.948Z,19.00
2022-09-14T04:11:23.762Z,19.00
2022-09-14T04:13:53.367Z,19.00
2022-09-14T04:16:20.898Z,19.00
2022-09-14T04:18:50.269Z,19.00
2022-09-14T04:21:22.921Z,19.00
2022-09-14T04:26:43.950Z,19.00
2022-09-14T04:29:12.293Z,19.00
2022-09-14T04:31:39.428Z,19.00
2022-09-14T04:34:06.336Z,19.00
2022-09-14T04:36:35.698Z,19.00
2022-09-14T04:39:03.486Z,19.00
2022-09-14T04:41:33.295Z,18.90
2022-09-14T04:44:00.687Z,19.00
2022-09-14T04:46:32.607Z,19.00
2022-09-14T04:48:59.535Z,19.00
2022-09-14T04:51:28.511Z,18.90
2022-09-14T04:53:56.608Z,18.90
2022-09-14T04:56:24.214Z,18.90
2022-09-14T04:58:53.442Z,19.00
2022-09-14T05:01:23.201Z,19.00
2022-09-14T05:03:51.197Z,18.90
2022-09-14T05:06:29.513Z,18.90
2022-09-14T05:08:57.170Z,18.80
2022-09-14T05:11:29.090Z,18.80
2022-09-14T05:14:00.817Z,18.90
2022-09-14T05:16:36.684Z,18.90
2022-09-14T05:19:08.501Z,18.90
2022-09-14T05:21:36.926Z,18.90
2022-09-14T05:24:06.685Z,18.90
2022-09-14T05:26:38.066Z,18.90
2022-09-14T05:29:05.202Z,18.90
2022-09-14T05:31:34.273Z,19.00
2022-09-14T05:34:01.468Z,19.00
2022-09-14T05:36:28.241Z,19.00
2022-09-14T05:39:00.932Z,18.90
2022-09-14T05:41:27.622Z,19.00
2022-09-14T05:43:58.208Z,19.00
2022-09-14T05:46:25.341Z,19.00
2022-09-14T05:48:54.782Z,19.00
2022-09-14T05:51:25.660Z,19.00
2022-09-14T05:53:59.330Z,19.00
2022-09-14T05:56:28.322Z,19.00
2022-09-14T05:58:55.538Z,19.00
2022-09-14T06:01:25.171Z,19.00
2022-09-14T06:04:00.203Z,19.00
2022-09-14T06:06:27.099Z,19.00
2022-09-14T06:08:55.349Z,19.00
2022-09-14T06:11:26.521Z,19.00
2022-09-14T06:13:54.916Z,19.00
2022-09-14T06:16:25.991Z,19.10
2022-09-14T06:18:54.762Z,19.10
2022-09-14T06:21:22.209Z,19.10
2022-09-14T06:23:49.982Z,19.10
2022-09-14T06:26:17.180Z,19.10
2022-09-14T06:28:43.957Z,19.10
2022-09-14T06:31:13.549Z,19.10
2022-09-14T06:33:44.509Z,19.10
2022-09-14T06:36:15.081Z,19.10
2022-09-14T06:38:42.711Z,19.00
2022-09-14T06:41:14.152Z,19.00
2022-09-14T06:43:42.876Z,19.00
2022-09-14T06:46:19.755Z,19.00
2022-09-14T06:48:53.103Z,19.00
2022-09-14T06:51:28.353Z,19.00
2022-09-14T06:54:00.073Z,19.00
2022-09-14T06:56:32.050Z,19.00
2022-09-14T06:58:59.167Z,18.90
2022-09-14T07:01:26.843Z,19.00
2022-09-14T07:03:54.123Z,19.00
2022-09-14T07:06:25.367Z,19.00
2022-09-14T07:08:53.266Z,19.00
2022-09-14T07:11:25.821Z,18.90
2022-09-14T07:13:59.330Z,18.90
2022-09-14T07:16:27.684Z,18.90
2022-09-14T07:18:58.271Z,18.90
2022-09-14T07:21:25.336Z,19.00
2022-09-14T07:23:55.559Z,18.90
2022-09-14T07:26:25.382Z,18.90
2022-09-14T07:28:56.319Z,18.80
2022-09-14T07:31:32.769Z,18.90
2022-09-14T07:34:01.919Z,19.00
2022-09-14T07:36:34.827Z,19.00
2022-09-14T07:39:04.462Z,19.00
2022-09-14T07:41:34.055Z,19.10
2022-09-14T07:44:03.720Z,19.00
2022-09-14T07:46:33.314Z,19.10
2022-09-14T07:49:01.360Z,19.00
2022-09-14T07:51:29.746Z,19.10
2022-09-14T07:54:00.760Z,19.10
2022-09-14T07:56:27.797Z,19.10
2022-09-14T07:59:11.518Z,19.00
2022-09-14T08:01:44.035Z,19.10
2022-09-14T08:04:11.086Z,19.10
2022-09-14T08:06:40.439Z,19.10
2022-09-14T08:09:10.864Z,19.10
2022-09-14T08:11:38.543Z,19.20
2022-09-14T08:14:10.312Z,19.20
2022-09-14T08:16:40.710Z,19.20
2022-09-14T08:19:14.689Z,19.20
2022-09-14T08:21:46.275Z,19.20
2022-09-14T08:24:15.839Z,19.20
2022-09-14T08:26:42.519Z,19.20
2022-09-14T08:29:09.198Z,19.20
2022-09-14T08:31:38.881Z,19.20
2022-09-14T08:34:07.035Z,19.20
2022-09-14T08:36:37.123Z,19.20
2022-09-14T08:39:06.093Z,19.30
2022-09-14T08:41:39.061Z,19.30
2022-09-14T08:44:12.611Z,19.30
2022-09-14T08:46:47.227Z,19.30
2022-09-14T08:49:37.269Z,19.30
2022-09-14T08:52:04.458Z,19.30
2022-09-14T08:54:33.298Z,19.30
2022-09-14T08:57:18.262Z,19.30
2022-09-14T09:00:12.732Z,19.30
2022-09-14T09:03:26.958Z,19.40
2022-09-14T09:06:00.937Z,19.30
2022-09-14T09:08:34.410Z,19.30
2022-09-14T09:11:05.520Z,19.30
2022-09-14T09:13:38.279Z,19.30
2022-09-14T09:16:11.435Z,19.30
2022-09-14T09:18:49.611Z,19.40
2022-09-14T09:21:19.302Z,19.40
2022-09-14T09:23:48.396Z,19.40
2022-09-14T09:26:30.944Z,19.40
2022-09-14T09:29:02.756Z,19.50
2022-09-14T09:31:39.798Z,19.40
2022-09-14T09:34:06.600Z,19.40
2022-09-14T09:36:39.255Z,19.40
2022-09-14T09:39:06.818Z,19.50
2022-09-14T09:41:59.791Z,19.50
2022-09-14T09:44:26.716Z,19.50
2022-09-14T09:47:01.720Z,19.50
2022-09-14T09:49:32.711Z,19.50
2022-09-14T09:52:08.372Z,19.50
2022-09-14T09:54:35.753Z,19.60
2022-09-14T09:57:05.241Z,19.50
2022-09-14T09:59:40.914Z,19.40
2022-09-14T10:02:28.254Z,19.40
2022-09-14T10:05:10.872Z,19.40
2022-09-14T10:07:50.209Z,19.60
2022-09-14T10:10:26.817Z,19.60
2022-09-14T10:12:56.747Z,19.50
2022-09-14T10:15:31.478Z,19.50
2022-09-14T10:18:04.303Z,19.40
2022-09-14T10:20:31.408Z,19.20
2022-09-14T10:23:14.855Z,19.10
2022-09-14T10:25:41.628Z,19.20
2022-09-14T10:28:23.629Z,19.20
2022-09-14T10:30:59.548Z,19.10
2022-09-14T10:33:26.414Z,19.10
2022-09-14T10:36:09.848Z,19.10
2022-09-14T10:38:45.918Z,19.10
2022-09-14T10:41:36.137Z,19.10
2022-09-14T10:44:25.777Z,19.20
2022-09-14T10:47:26.487Z,19.10
2022-09-14T10:50:02.080Z,19.10
2022-09-14T10:52:50.404Z,19.20
2022-09-14T10:55:52.764Z,19.10
2022-09-14T10:58:41.100Z,19.10
2022-09-14T11:01:32.643Z,19.10
2022-09-14T11:04:05.368Z,19.10
2022-09-14T11:06:31.989Z,19.10
2022-09-14T11:09:36.852Z,19.10
2022-09-14T11:12:15.152Z,19.10
2022-09-14T11:14:50.909Z,19.10
2022-09-14T11:17:54.227Z,19.10
2022-09-14T11:20:57.833Z,19.10
2022-09-14T11:23:42.699Z,18.90
2022-09-14T11:26:21.740Z,18.90
2022-09-14T11:28:58.364Z,18.80
2022-09-14T11:31:33.348Z,18.80
2022-09-14T11:34:06.209Z,18.80
2022-09-14T11:36:51.519Z,18.80
2022-09-14T11:39:31.905Z,18.80
2022-09-14T11:42:23.347Z,18.90
2022-09-14T11:44:58.108Z,18.90
2022-09-14T11:47:28.512Z,18.90
2022-09-14T11:50:08.065Z,18.90
2022-09-14T11:52:34.901Z,18.90
2022-09-14T11:55:05.616Z,18.90
2022-09-14T11:57:33.860Z,18.90
2022-09-14T12:00:33.402Z,19.00
2022-09-14T12:03:00.166Z,18.90
2022-09-14T12:05:32.264Z,18.90
2022-09-14T12:07:59.839Z,19.00
2022-09-14T12:10:27.613Z,19.00
2022-09-14T12:13:15.775Z,19.00
2022-09-14T12:15:43.052Z,19.20
2022-09-14T12:18:13.313Z,19.20
2022-09-14T12:20:43.353Z,19.30
2022-09-14T12:23:12.855Z,19.40
2022-09-14T12:25:55.707Z,19.30
2022-09-14T12:28:37.733Z,19.40
2022-09-14T12:31:04.543Z,19.60
2022-09-14T12:33:34.008Z,19.80
2022-09-14T12:36:13.607Z,19.80
2022-09-14T12:38:43.090Z,19.70
2022-09-14T12:41:15.924Z,19.50
2022-09-14T12:43:42.744Z,19.60
2022-09-14T12:46:21.499Z,19.50
2022-09-14T12:48:48.377Z,19.60
2022-09-14T12:51:36.645Z,19.60
2022-09-14T12:54:09.313Z,19.60
2022-09-14T12:57:00.501Z,19.50
2022-09-14T12:59:46.027Z,19.40
2022-09-14T13:02:12.735Z,19.40
2022-09-14T13:04:41.765Z,19.50
2022-09-14T13:07:15.823Z,19.50
2022-09-14T13:09:48.958Z,19.50
2022-09-14T13:12:34.379Z,19.50
2022-09-14T13:15:05.009Z,19.50
2022-09-14T13:17:31.746Z,19.50
2022-09-14T13:20:01.197Z,19.50
2022-09-14T13:22:31.731Z,19.30
2022-09-14T13:25:01.423Z,19.30
2022-09-14T13:27:33.940Z,19.20
2022-09-14T13:30:17.601Z,19.10
2022-09-14T13:32:47.391Z,19.10
2022-09-14T13:35:17.910Z,19.10
2022-09-14T13:37:48.321Z,19.10
2022-09-14T13:40:17.614Z,19.20
2022-09-14T13:42:45.385Z,19.10
2022-09-14T13:45:13.611Z,19.10
2022-09-14T13:47:40.672Z,19.10
2022-09-14T13:50:08.126Z,19.20
2022-09-14T13:53:00.624Z,19.20
2022-09-14T13:55:46.022Z,19.20
2022-09-14T13:58:22.133Z,19.20
2022-09-14T14:00:56.867Z,19.20
2022-09-14T14:03:28.916Z,19.20
2022-09-14T14:05:56.274Z,19.20
2022-09-14T14:08:36.588Z,19.20
2022-09-14T14:11:06.471Z,19.20
2022-09-14T14:13:37.247Z,19.20
2022-09-14T14:16:27.192Z,19.20
2022-09-14T14:18:58.475Z,19.20
2022-09-14T14:21:31.183Z,19.10
2022-09-14T14:24:18.920Z,19.20
2022-09-14T14:26:50.693Z,19.20
2022-09-14T14:29:18.061Z,19.10
2022-09-14T14:31:47.309Z,19.20
2022-09-14T14:34:24.375Z,19.20
2022-09-14T14:36:51.858Z,19.10
2022-09-14T14:39:21.377Z,19.10
2022-09-14T14:41:51.392Z,19.10
2022-09-14T14:44:24.221Z,19.10
2022-09-14T14:56:47.489Z,18.50
2022-09-14T14:59:20.241Z,18.40
2022-09-14T15:01:48.129Z,18.40
2022-09-14T15:04:17.167Z,18.20
2022-09-14T15:06:48.607Z,18.20
2022-09-14T15:09:20.282Z,18.10
2022-09-14T15:11:47.195Z,18.00
2022-09-14T15:14:16.639Z,17.90
2022-09-14T15:16:44.026Z,17.80
2022-09-14T15:19:13.247Z,17.70
2022-09-14T15:21:41.485Z,17.70
2022-09-14T15:24:11.261Z,17.70
2022-09-14T15:26:40.717Z,17.70
2022-09-14T15:29:09.133Z,17.70
2022-09-14T15:31:35.909Z,17.80
2022-09-14T15:34:02.623Z,17.80
2022-09-14T15:36:35.360Z,17.80
2022-09-14T15:39:04.526Z,17.80
2022-09-14T15:41:31.253Z,17.80
2022-09-14T15:43:57.922Z,17.80
2022-09-14T15:46:27.709Z,17.90
2022-09-14T15:48:54.419Z,17.80
2022-09-14T15:51:25.492Z,17.80
2022-09-14T15:53:52.933Z,17.90
2022-09-14T15:56:19.674Z,17.90
2022-09-14T15:58:48.239Z,17.80
2022-09-14T16:01:17.294Z,17.80
2022-09-14T16:03:44.071Z,17.80
2022-09-14T16:06:12.489Z,17.80
2022-09-14T16:08:40.143Z,17.80
2022-09-14T16:11:08.280Z,17.90
2022-09-14T16:13:35.709Z,17.90
2022-09-14T16:16:10.916Z,17.90
2022-09-14T16:18:38.510Z,17.90
2022-09-14T16:21:11.745Z,17.90
2022-09-14T16:23:45.338Z,17.80
2022-09-14T16:26:16.581Z,17.80
2022-09-14T16:28:44.969Z,17.80
2022-09-14T16:31:14.995Z,17.70
2022-09-14T16:33:44.399Z,17.70
2022-09-14T16:36:17.140Z,17.80
2022-09-14T16:38:46.687Z,17.70
2022-09-14T16:41:14.752Z,17.70
2022-09-14T16:43:41.562Z,17.70
2022-09-14T16:46:11.149Z,17.60
2022-09-14T16:48:47.590Z,17.60
2022-09-14T16:51:17.984Z,17.50
2022-09-14T16:53:45.846Z,17.40
2022-09-14T16:56:24.430Z,17.50
2022-09-14T16:58:55.091Z,17.50
2022-09-14T17:01:24.845Z,17.50
2022-09-14T17:03:54.195Z,17.50
2022-09-14T17:06:26.811Z,17.50
2022-09-14T17:08:55.273Z,17.50
2022-09-14T17:11:25.151Z,17.50
2022-09-14T17:13:52.445Z,17.40
2022-09-14T17:16:21.295Z,17.50
2022-09-14T17:18:50.076Z,17.40
2022-09-14T17:21:23.312Z,17.40
2022-09-14T17:23:50.223Z,17.30
2022-09-14T17:26:19.494Z,17.30
2022-09-14T17:28:47.678Z,17.40
2022-09-14T17:31:16.604Z,17.40
2022-09-14T17:33:47.310Z,17.50
2022-09-14T17:36:15.228Z,17.60
2022-09-14T17:38:43.307Z,17.50
2022-09-14T17:41:12.343Z,17.40
2022-09-14T17:43:40.407Z,17.30
2022-09-14T17:46:12.455Z,17.30
2022-09-14T17:48:40.651Z,17.30
2022-09-14T17:51:10.425Z,17.30
2022-09-14T17:53:41.699Z,17.30
2022-09-14T17:56:10.609Z,17.30
2022-09-14T17:58:37.797Z,17.30
2022-09-14T18:01:09.308Z,17.30
2022-09-14T18:03:40.638Z,17.30
2022-09-14T18:06:12.117Z,17.30
2022-09-14T18:08:39.604Z,17.40
2022-09-14T18:11:12.419Z,17.40
2022-09-14T18:13:49.454Z,17.30
2022-09-14T18:16:20.971Z,17.30
2022-09-14T18:18:50.701Z,17.30
2022-09-14T18:21:18.600Z,17.30
2022-09-14T18:23:50.192Z,17.30
2022-09-14T18:26:17.564Z,17.30
2022-09-14T18:28:44.729Z,17.30
2022-09-14T18:31:13.827Z,17.30
2022-09-14T18:33:48.369Z,17.30
2022-09-14T18:36:15.258Z,17.30
2022-09-14T18:38:42.773Z,17.20
2022-09-14T18:41:11.653Z,17.30
2022-09-14T18:43:42.219Z,17.30
2022-09-14T18:46:09.042Z,17.20
2022-09-14T18:48:35.881Z,17.30
2022-09-14T18:51:06.677Z,17.30
2022-09-14T18:53:36.100Z,17.20
2022-09-14T18:56:04.961Z,17.30
2022-09-14T18:58:34.622Z,17.30
2022-09-14T19:01:03.334Z,17.30
2022-09-14T19:03:31.363Z,17.20
2022-09-14T19:05:59.073Z,17.30
2022-09-14T19:08:25.800Z,17.20
2022-09-14T19:10:52.474Z,17.10
2022-09-14T19:13:19.160Z,17.10
2022-09-14T19:15:45.843Z,17.00
2022-09-14T19:18:15.240Z,17.00
2022-09-14T19:21:05.410Z,17.00
2022-09-14T19:23:32.024Z,16.90
2022-09-14T19:26:15.460Z,16.80
2022-09-14T19:28:44.542Z,16.90
2022-09-14T19:31:16.866Z,16.90
2022-09-14T19:33:45.638Z,17.00
2022-09-14T19:36:19.777Z,16.90
2022-09-14T19:38:47.274Z,17.00
2022-09-14T19:41:14.416Z,17.00
2022-09-14T19:43:41.365Z,17.00
2022-09-14T19:46:19.642Z,17.10
2022-09-14T19:48:46.860Z,17.10
2022-09-14T19:51:16.101Z,17.10
2022-09-14T19:53:44.071Z,17.10
2022-09-14T19:56:13.265Z,17.10
2022-09-14T19:58:42.884Z,17.10
2022-09-14T20:01:10.466Z,17.10
2022-09-14T20:03:37.496Z,17.10
2022-09-14T20:06:19.182Z,17.10
2022-09-14T20:08:53.074Z,17.10
2022-09-14T20:11:23.755Z,17.00
2022-09-14T20:13:50.702Z,17.00
2022-09-14T20:19:08.740Z,16.90
2022-09-14T20:21:38.342Z,16.90
2022-09-14T20:24:21.378Z,16.90
2022-09-14T20:26:50.064Z,16.80
2022-09-14T20:29:21.171Z,16.80
2022-09-14T20:31:48.426Z,16.90
2022-09-14T20:34:17.165Z,16.90
2022-09-14T20:36:44.071Z,16.80
2022-09-14T20:39:10.884Z,16.90
2022-09-14T20:41:42.001Z,16.80
2022-09-14T20:44:08.760Z,16.80
2022-09-14T20:46:43.815Z,16.90
2022-09-14T20:49:15.924Z,16.90
2022-09-14T20:51:43.367Z,16.90
2022-09-14T20:54:15.418Z,16.90
2022-09-14T20:56:46.156Z,16.80
2022-09-14T20:59:16.530Z,16.70
2022-09-14T21:01:45.014Z,16.80
2022-09-14T21:04:17.455Z,16.80
2022-09-14T21:06:47.093Z,16.70
2022-09-14T21:09:14.509Z,16.70
2022-09-14T21:11:42.159Z,16.70
2022-09-14T21:14:08.918Z,16.70
2022-09-14T21:16:42.734Z,16.70
2022-09-14T21:19:15.238Z,16.60
2022-09-14T21:21:44.456Z,16.70
2022-09-14T21:24:13.511Z,16.70
2022-09-14T21:26:43.002Z,16.70
2022-09-14T21:29:20.246Z,16.70
2022-09-14T21:31:48.633Z,16.70
2022-09-14T21:34:15.747Z,16.70
2022-09-14T21:36:45.756Z,16.50
2022-09-14T21:39:15.362Z,16.40
2022-09-14T21:41:46.208Z,16.30
2022-09-14T21:44:16.341Z,16.30
2022-09-14T21:46:43.235Z,16.30
2022-09-14T21:49:14.418Z,16.30
2022-09-14T21:51:41.638Z,16.30
2022-09-14T21:54:13.034Z,16.40
2022-09-14T21:56:41.763Z,16.30
2022-09-14T21:59:19.410Z,16.40
2022-09-14T22:01:47.021Z,16.30
2022-09-14T22:04:19.753Z,16.30
2022-09-14T22:06:47.000Z,16.30
2022-09-14T22:09:15.647Z,16.30
2022-09-14T22:11:42.579Z,16.30
2022-09-14T22:14:18.101Z,16.30
2022-09-14T22:16:50.319Z,16.30
2022-09-14T22:19:24.005Z,16.20
2022-09-14T22:21:51.672Z,16.20
2022-09-14T22:24:27.690Z,16.10
2022-09-14T22:26:57.395Z,16.20
2022-09-14T22:29:26.666Z,16.20
2022-09-14T22:31:53.697Z,16.20
2022-09-14T22:34:24.416Z,16.20
2022-09-14T22:36:51.163Z,16.20
2022-09-14T22:39:17.811Z,16.30
2022-09-14T22:41:44.792Z,16.20
2022-09-14T22:44:14.087Z,16.20
2022-09-14T22:46:43.302Z,16.20
2022-09-14T22:49:13.184Z,16.20
2022-09-14T22:51:40.051Z,16.10
2022-09-14T22:54:07.314Z,16.00
2022-09-14T22:56:37.785Z,16.00
2022-09-14T22:59:11.459Z,16.00
2022-09-14T23:01:40.467Z,16.00
2022-09-14T23:04:13.041Z,15.80
2022-09-14T23:06:45.271Z,15.70
2022-09-14T23:09:16.604Z,15.70
2022-09-14T23:11:46.236Z,15.70
2022-09-14T23:14:14.794Z,15.70
2022-09-14T23:16:42.385Z,15.80
2022-09-14T23:19:15.449Z,15.80
2022-09-14T23:21:42.193Z,15.80
2022-09-14T23:24:11.321Z,15.90
2022-09-14T23:26:38.352Z,15.80
2022-09-14T23:29:08.594Z,15.80
2022-09-14T23:31:35.693Z,15.80
2022-09-14T23:34:05.684Z,15.70
2022-09-14T23:36:33.124Z,15.80
2022-09-14T23:39:00.110Z,15.70
2022-09-14T23:41:27.591Z,15.80
2022-09-14T23:43:54.259Z,15.80
2022-09-14T23:46:22.136Z,15.80
2022-09-14T23:48:48.913Z,15.80
2022-09-14T23:51:16.481Z,15.80
2022-09-14T23:53:43.289Z,15.80
2022-09-14T23:56:13.525Z,15.90
2022-09-14T23:58:41.902Z,15.90
